ADDS TAF Board (Experimental) INFO Settings
IDs: Format: Expanded Condensed

KLAS - Las Vegas/McCarran I, NV, US

Issued at 2059 UTC 14 Feb 2016
Updated at: 2059 UTC 14 Feb 2016
Time2056Z 14/21Z 14/22Z 14/23Z 15/00Z 15/01Z 15/02Z 15/03Z 15/04Z 15/05Z 15/06Z 15/07Z 15/08Z 15/09Z
Type OBS PRVL PRVL PRVL PRVL PRVL PRVL PRVL PRVL PRVL PRVL PRVL PRVL PRVL
VIS 10 >6 >6 >6 >6 >6 >6 >6 >6 >6 >6 >6 >6 >6
CIG 250 250 250 250 250 250 250 250 250 250 250 250 250 --
Cover OVC BKN BKN BKN BKN BKN BKN BKN BKN BKN BKN BKN BKN SCT
FltCat VFR VFR VFR VFR VFR VFR VFR VFR VFR VFR VFR VFR VFR VFR
WX -- -- -- -- -- -- -- -- -- -- -- -- -- --
WDir 200 VRB VRB VRB VRB VRB 340 340 340 340 340 340 340 210
WSpd 6 6 6 6 6 6 7 7 7 7 7 7 7 6
WGst -- -- -- -- -- -- -- -- -- -- -- -- -- --
R01/19
XWnd -1 VRB VRB VRB VRB VRB 5 5 5 5 5 5 5 1
HWnd -6 VRB VRB VRB VRB VRB 5 5 5 5 5 5 5 -6
R07/25
XWnd -6 VRB VRB VRB VRB VRB 7 7 7 7 7 7 7 -5
HWnd -2 VRB VRB VRB VRB VRB -2 -2 -2 -2 -2 -2 -2 -3

NOTE: TEMPO conditions in [brackets]. Keep in mind TEMPO conditions might be better (lower impact) than prevailing conditions.

Raw TAF
KLAS 142059Z 1421/1518 VRB06KT P6SM BKN250
  FM150200 34007KT P6SM BKN250
  FM150900 21006KT P6SM SCT250


Raw METAR
KLAS 142056Z 20006KT 10SM FEW180 OVC250 21/M09 A3008 RMK AO2 SLP175 T02061089 58018
KLAS 141956Z 06003KT 10SM FEW180 BKN250 19/M08 A3012 RMK AO2 SLP190 T01941083
KLAS 141856Z 05005KT 10SM BKN250 19/M09 A3014 RMK AO2 SLP196 T01891089
KLAS 141756Z 29007KT 10SM FEW250 18/M09 A3013 RMK AO2 SLP193 T01781089 10178 20083 50005

METAR Board
Radar Display
Forecast Discussion

TAF Board Legend

Potential Impact
Threat None Slight Moderate High
Visibility (sm) ≥5.1 5.1>X≥3 3>X≥1 <1
Ceiling (100 ft) ≥30.1 30.1>X≥10 10>X≥5 <5
Wind Speed (kt) <10 10≤X<20 20≤X<30 ≥30
Wind Gust (kt) <15 15≤X<25 25≤X<35 ≥35
Weather No Wx Reported VCTS,-TS,-FZRA,SN TS,FZRA +TS,+FZRA,+SN